sensor_id;sensor_type;location;lat;lon;timestamp;P1;durP1;ratioP1;P2;durP2;ratioP2
7338;SDS011;33747;49.524;8.390;2023-01-31T00:01:17;24.00;;;6.70;;
7338;SDS011;33747;49.524;8.390;2023-01-31T00:03:43;17.23;;;5.80;;
7338;SDS011;33747;49.524;8.390;2023-01-31T00:08:43;21.65;;;6.30;;
7338;SDS011;33747;49.524;8.390;2023-01-31T00:11:09;16.42;;;6.25;;
7338;SDS011;33747;49.524;8.390;2023-01-31T00:13:35;14.98;;;5.72;;
7338;SDS011;33747;49.524;8.390;2023-01-31T00:16:00;14.38;;;5.80;;
7338;SDS011;33747;49.524;8.390;2023-01-31T00:18:26;20.83;;;5.60;;
7338;SDS011;33747;49.524;8.390;2023-01-31T00:20:51;16.75;;;5.43;;
7338;SDS011;33747;49.524;8.390;2023-01-31T00:23:17;16.23;;;6.00;;
7338;SDS011;33747;49.524;8.390;2023-01-31T00:25:42;18.23;;;5.15;;
7338;SDS011;33747;49.524;8.390;2023-01-31T00:28:07;20.08;;;5.72;;
7338;SDS011;33747;49.524;8.390;2023-01-31T00:30:33;12.63;;;4.95;;
7338;SDS011;33747;49.524;8.390;2023-01-31T00:32:58;16.55;;;5.10;;
7338;SDS011;33747;49.524;8.390;2023-01-31T00:35:24;15.30;;;4.50;;
7338;SDS011;33747;49.524;8.390;2023-01-31T00:37:49;19.75;;;4.75;;
7338;SDS011;33747;49.524;8.390;2023-01-31T00:40:14;14.68;;;4.75;;
7338;SDS011;33747;49.524;8.390;2023-01-31T00:42:40;15.20;;;5.38;;
7338;SDS011;33747;49.524;8.390;2023-01-31T00:45:06;20.48;;;4.53;;
7338;SDS011;33747;49.524;8.390;2023-01-31T00:47:31;14.93;;;5.20;;
7338;SDS011;33747;49.524;8.390;2023-01-31T00:49:56;19.67;;;4.82;;
7338;SDS011;33747;49.524;8.390;2023-01-31T00:52:22;17.65;;;5.03;;
7338;SDS011;33747;49.524;8.390;2023-01-31T00:54:47;19.80;;;4.78;;
7338;SDS011;33747;49.524;8.390;2023-01-31T00:57:13;21.67;;;5.00;;
7338;SDS011;33747;49.524;8.390;2023-01-31T00:59:38;14.05;;;4.80;;
7338;SDS011;33747;49.524;8.390;2023-01-31T01:02:03;11.18;;;5.22;;
7338;SDS011;33747;49.524;8.390;2023-01-31T01:04:29;12.27;;;5.38;;
7338;SDS011;33747;49.524;8.390;2023-01-31T01:06:54;18.23;;;5.97;;
7338;SDS011;33747;49.524;8.390;2023-01-31T01:09:19;20.92;;;6.00;;
7338;SDS011;33747;49.524;8.390;2023-01-31T01:11:46;17.05;;;5.35;;
7338;SDS011;33747;49.524;8.390;2023-01-31T01:14:12;14.43;;;6.05;;
7338;SDS011;33747;49.524;8.390;2023-01-31T01:16:37;17.02;;;5.47;;
7338;SDS011;33747;49.524;8.390;2023-01-31T01:19:04;16.88;;;6.45;;
7338;SDS011;33747;49.524;8.390;2023-01-31T01:21:30;16.55;;;6.00;;
7338;SDS011;33747;49.524;8.390;2023-01-31T01:23:58;23.98;;;5.93;;
7338;SDS011;33747;49.524;8.390;2023-01-31T01:26:26;19.33;;;6.68;;
7338;SDS011;33747;49.524;8.390;2023-01-31T01:28:53;23.33;;;6.38;;
7338;SDS011;33747;49.524;8.390;2023-01-31T01:31:20;15.10;;;6.30;;
7338;SDS011;33747;49.524;8.390;2023-01-31T01:33:46;16.73;;;6.10;;
7338;SDS011;33747;49.524;8.390;2023-01-31T01:36:13;29.00;;;6.68;;
7338;SDS011;33747;49.524;8.390;2023-01-31T01:38:41;14.85;;;5.45;;
7338;SDS011;33747;49.524;8.390;2023-01-31T01:41:07;22.88;;;5.97;;
7338;SDS011;33747;49.524;8.390;2023-01-31T01:43:50;16.83;;;5.68;;
7338;SDS011;33747;49.524;8.390;2023-01-31T01:46:18;13.30;;;5.50;;
7338;SDS011;33747;49.524;8.390;2023-01-31T01:48:49;15.45;;;5.28;;
7338;SDS011;33747;49.524;8.390;2023-01-31T01:51:17;22.25;;;5.95;;
7338;SDS011;33747;49.524;8.390;2023-01-31T01:53:43;21.60;;;5.28;;
7338;SDS011;33747;49.524;8.390;2023-01-31T01:56:15;17.50;;;4.90;;
7338;SDS011;33747;49.524;8.390;2023-01-31T01:58:48;19.30;;;4.38;;
7338;SDS011;33747;49.524;8.390;2023-01-31T02:01:18;12.80;;;4.80;;
7338;SDS011;33747;49.524;8.390;2023-01-31T02:03:44;16.15;;;4.85;;
7338;SDS011;33747;49.524;8.390;2023-01-31T02:06:10;15.27;;;4.97;;
7338;SDS011;33747;49.524;8.390;2023-01-31T02:08:36;16.48;;;4.68;;
7338;SDS011;33747;49.524;8.390;2023-01-31T02:13:34;16.17;;;5.28;;
7338;SDS011;33747;49.524;8.390;2023-01-31T02:15:59;17.77;;;4.20;;
7338;SDS011;33747;49.524;8.390;2023-01-31T02:18:25;24.45;;;4.88;;
7338;SDS011;33747;49.524;8.390;2023-01-31T02:41:14;14.55;;;4.50;;
7338;SDS011;33747;49.524;8.390;2023-01-31T02:49:26;15.02;;;4.25;;
7338;SDS011;33747;49.524;8.390;2023-01-31T02:52:00;15.93;;;4.93;;
7338;SDS011;33747;49.524;8.390;2023-01-31T02:54:56;14.05;;;4.68;;
7338;SDS011;33747;49.524;8.390;2023-01-31T02:57:41;13.00;;;4.30;;
7338;SDS011;33747;49.524;8.390;2023-01-31T03:00:08;20.00;;;5.80;;
7338;SDS011;33747;49.524;8.390;2023-01-31T03:02:34;18.50;;;5.10;;
7338;SDS011;33747;49.524;8.390;2023-01-31T03:05:00;15.15;;;5.38;;
7338;SDS011;33747;49.524;8.390;2023-01-31T03:07:26;18.38;;;5.25;;
7338;SDS011;33747;49.524;8.390;2023-01-31T03:09:59;27.55;;;4.82;;
7338;SDS011;33747;49.524;8.390;2023-01-31T03:15:20;16.42;;;5.25;;
7338;SDS011;33747;49.524;8.390;2023-01-31T03:18:12;17.42;;;5.70;;
7338;SDS011;33747;49.524;8.390;2023-01-31T03:20:42;14.63;;;5.80;;
7338;SDS011;33747;49.524;8.390;2023-01-31T03:23:11;18.55;;;6.00;;
7338;SDS011;33747;49.524;8.390;2023-01-31T03:25:39;20.30;;;5.22;;
7338;SDS011;33747;49.524;8.390;2023-01-31T03:28:07;18.20;;;6.15;;
7338;SDS011;33747;49.524;8.390;2023-01-31T03:30:38;18.75;;;5.88;;
7338;SDS011;33747;49.524;8.390;2023-01-31T03:33:29;18.88;;;6.38;;
7338;SDS011;33747;49.524;8.390;2023-01-31T03:36:44;19.00;;;6.55;;
7338;SDS011;33747;49.524;8.390;2023-01-31T03:45:05;16.52;;;5.65;;
7338;SDS011;33747;49.524;8.390;2023-01-31T03:47:21;19.52;;;5.60;;
7338;SDS011;33747;49.524;8.390;2023-01-31T03:49:49;19.58;;;5.85;;
7338;SDS011;33747;49.524;8.390;2023-01-31T03:52:17;15.85;;;6.38;;
7338;SDS011;33747;49.524;8.390;2023-01-31T03:54:48;21.83;;;5.97;;
7338;SDS011;33747;49.524;8.390;2023-01-31T03:57:22;20.85;;;6.10;;
7338;SDS011;33747;49.524;8.390;2023-01-31T03:59:50;24.92;;;6.18;;
7338;SDS011;33747;49.524;8.390;2023-01-31T04:02:20;13.25;;;5.93;;
7338;SDS011;33747;49.524;8.390;2023-01-31T04:04:49;19.85;;;7.15;;
7338;SDS011;33747;49.524;8.390;2023-01-31T04:07:18;20.27;;;6.72;;
7338;SDS011;33747;49.524;8.390;2023-01-31T04:09:43;20.17;;;6.05;;
7338;SDS011;33747;49.524;8.390;2023-01-31T04:12:10;11.13;;;4.93;;
7338;SDS011;33747;49.524;8.390;2023-01-31T04:14:37;12.73;;;6.07;;
7338;SDS011;33747;49.524;8.390;2023-01-31T04:17:03;22.90;;;6.10;;
7338;SDS011;33747;49.524;8.390;2023-01-31T04:19:28;13.80;;;5.38;;
7338;SDS011;33747;49.524;8.390;2023-01-31T04:21:54;15.18;;;5.65;;
7338;SDS011;33747;49.524;8.390;2023-01-31T04:24:19;17.65;;;6.35;;
7338;SDS011;33747;49.524;8.390;2023-01-31T04:26:44;13.27;;;4.88;;
7338;SDS011;33747;49.524;8.390;2023-01-31T04:29:10;16.55;;;5.43;;
7338;SDS011;33747;49.524;8.390;2023-01-31T04:31:35;17.17;;;5.60;;
7338;SDS011;33747;49.524;8.390;2023-01-31T04:34:01;21.33;;;5.13;;
7338;SDS011;33747;49.524;8.390;2023-01-31T04:36:26;17.77;;;5.90;;
7338;SDS011;33747;49.524;8.390;2023-01-31T04:38:51;15.27;;;5.43;;
7338;SDS011;33747;49.524;8.390;2023-01-31T04:41:17;13.75;;;5.85;;
7338;SDS011;33747;49.524;8.390;2023-01-31T04:43:42;17.23;;;5.80;;
7338;SDS011;33747;49.524;8.390;2023-01-31T04:46:07;10.88;;;4.60;;
7338;SDS011;33747;49.524;8.390;2023-01-31T04:48:33;13.50;;;5.85;;
7338;SDS011;33747;49.524;8.390;2023-01-31T04:50:58;12.75;;;5.80;;
7338;SDS011;33747;49.524;8.390;2023-01-31T04:53:24;14.65;;;5.78;;
7338;SDS011;33747;49.524;8.390;2023-01-31T04:55:52;17.15;;;5.47;;
7338;SDS011;33747;49.524;8.390;2023-01-31T04:58:18;17.85;;;6.57;;
7338;SDS011;33747;49.524;8.390;2023-01-31T05:00:43;24.02;;;5.43;;
7338;SDS011;33747;49.524;8.390;2023-01-31T05:03:09;19.95;;;6.40;;
7338;SDS011;33747;49.524;8.390;2023-01-31T05:05:34;20.63;;;6.28;;
7338;SDS011;33747;49.524;8.390;2023-01-31T05:07:59;23.90;;;7.32;;
7338;SDS011;33747;49.524;8.390;2023-01-31T05:10:25;31.23;;;7.68;;
7338;SDS011;33747;49.524;8.390;2023-01-31T05:12:50;13.65;;;5.88;;
7338;SDS011;33747;49.524;8.390;2023-01-31T05:15:15;20.10;;;7.30;;
7338;SDS011;33747;49.524;8.390;2023-01-31T05:17:41;22.45;;;7.03;;
7338;SDS011;33747;49.524;8.390;2023-01-31T05:20:06;12.25;;;5.85;;
7338;SDS011;33747;49.524;8.390;2023-01-31T05:22:32;21.33;;;7.07;;
7338;SDS011;33747;49.524;8.390;2023-01-31T05:24:58;20.25;;;7.38;;
7338;SDS011;33747;49.524;8.390;2023-01-31T05:27:23;22.95;;;7.47;;
7338;SDS011;33747;49.524;8.390;2023-01-31T05:29:49;20.85;;;8.35;;
7338;SDS011;33747;49.524;8.390;2023-01-31T05:32:15;20.92;;;7.82;;
7338;SDS011;33747;49.524;8.390;2023-01-31T05:34:41;18.17;;;7.05;;
7338;SDS011;33747;49.524;8.390;2023-01-31T05:37:07;16.73;;;7.32;;
7338;SDS011;33747;49.524;8.390;2023-01-31T05:39:32;27.20;;;8.00;;
7338;SDS011;33747;49.524;8.390;2023-01-31T05:41:58;18.50;;;6.82;;
7338;SDS011;33747;49.524;8.390;2023-01-31T05:44:23;19.58;;;6.93;;
7338;SDS011;33747;49.524;8.390;2023-01-31T05:46:49;20.63;;;7.38;;
7338;SDS011;33747;49.524;8.390;2023-01-31T05:49:14;16.52;;;6.68;;
7338;SDS011;33747;49.524;8.390;2023-01-31T05:51:40;24.63;;;8.38;;
7338;SDS011;33747;49.524;8.390;2023-01-31T05:54:06;16.52;;;7.68;;
7338;SDS011;33747;49.524;8.390;2023-01-31T05:56:31;24.17;;;7.57;;
7338;SDS011;33747;49.524;8.390;2023-01-31T05:58:56;23.60;;;8.02;;
7338;SDS011;33747;49.524;8.390;2023-01-31T06:01:23;24.20;;;9.48;;
7338;SDS011;33747;49.524;8.390;2023-01-31T06:03:50;18.60;;;7.93;;
7338;SDS011;33747;49.524;8.390;2023-01-31T06:06:16;20.17;;;7.53;;
7338;SDS011;33747;49.524;8.390;2023-01-31T06:08:41;22.25;;;9.98;;
7338;SDS011;33747;49.524;8.390;2023-01-31T06:11:07;31.27;;;10.10;;
7338;SDS011;33747;49.524;8.390;2023-01-31T06:13:35;23.95;;;10.00;;
7338;SDS011;33747;49.524;8.390;2023-01-31T06:16:00;23.55;;;10.55;;
7338;SDS011;33747;49.524;8.390;2023-01-31T06:18:26;25.33;;;9.73;;
7338;SDS011;33747;49.524;8.390;2023-01-31T06:20:51;26.48;;;9.25;;
7338;SDS011;33747;49.524;8.390;2023-01-31T06:23:17;18.20;;;9.77;;
7338;SDS011;33747;49.524;8.390;2023-01-31T06:25:43;25.05;;;9.10;;
7338;SDS011;33747;49.524;8.390;2023-01-31T06:28:13;22.40;;;9.52;;
7338;SDS011;33747;49.524;8.390;2023-01-31T06:30:38;18.92;;;8.80;;
7338;SDS011;33747;49.524;8.390;2023-01-31T06:33:04;31.13;;;9.93;;
7338;SDS011;33747;49.524;8.390;2023-01-31T06:35:29;20.75;;;9.65;;
7338;SDS011;33747;49.524;8.390;2023-01-31T06:37:55;24.48;;;8.90;;
7338;SDS011;33747;49.524;8.390;2023-01-31T06:40:20;20.05;;;8.68;;
7338;SDS011;33747;49.524;8.390;2023-01-31T06:42:45;17.50;;;8.80;;
7338;SDS011;33747;49.524;8.390;2023-01-31T06:45:11;24.73;;;10.38;;
7338;SDS011;33747;49.524;8.390;2023-01-31T06:47:36;22.65;;;10.25;;
7338;SDS011;33747;49.524;8.390;2023-01-31T06:50:02;21.20;;;9.93;;
7338;SDS011;33747;49.524;8.390;2023-01-31T06:52:27;27.05;;;9.98;;
7338;SDS011;33747;49.524;8.390;2023-01-31T06:54:53;19.85;;;10.60;;
7338;SDS011;33747;49.524;8.390;2023-01-31T06:57:18;20.50;;;9.90;;
7338;SDS011;33747;49.524;8.390;2023-01-31T06:59:44;27.30;;;10.07;;
7338;SDS011;33747;49.524;8.390;2023-01-31T07:02:09;19.75;;;9.23;;
7338;SDS011;33747;49.524;8.390;2023-01-31T07:04:35;22.70;;;9.70;;
7338;SDS011;33747;49.524;8.390;2023-01-31T07:07:00;19.48;;;9.20;;
7338;SDS011;33747;49.524;8.390;2023-01-31T07:09:26;29.50;;;13.35;;
7338;SDS011;33747;49.524;8.390;2023-01-31T07:11:51;22.55;;;9.55;;
7338;SDS011;33747;49.524;8.390;2023-01-31T07:14:17;24.55;;;9.77;;
7338;SDS011;33747;49.524;8.390;2023-01-31T07:16:42;25.65;;;10.27;;
7338;SDS011;33747;49.524;8.390;2023-01-31T07:19:07;22.48;;;8.85;;
7338;SDS011;33747;49.524;8.390;2023-01-31T07:21:33;21.05;;;9.50;;
7338;SDS011;33747;49.524;8.390;2023-01-31T07:24:00;16.48;;;8.50;;
7338;SDS011;33747;49.524;8.390;2023-01-31T07:26:26;20.40;;;8.73;;
7338;SDS011;33747;49.524;8.390;2023-01-31T07:28:51;20.95;;;9.00;;
7338;SDS011;33747;49.524;8.390;2023-01-31T07:31:17;22.65;;;9.73;;
7338;SDS011;33747;49.524;8.390;2023-01-31T07:33:42;21.23;;;8.75;;
7338;SDS011;33747;49.524;8.390;2023-01-31T07:36:09;23.15;;;9.40;;
7338;SDS011;33747;49.524;8.390;2023-01-31T07:38:37;22.60;;;9.50;;
7338;SDS011;33747;49.524;8.390;2023-01-31T07:41:03;19.50;;;9.05;;
7338;SDS011;33747;49.524;8.390;2023-01-31T07:43:28;15.65;;;8.25;;
7338;SDS011;33747;49.524;8.390;2023-01-31T07:45:54;16.40;;;7.97;;
7338;SDS011;33747;49.524;8.390;2023-01-31T07:48:20;16.85;;;9.00;;
7338;SDS011;33747;49.524;8.390;2023-01-31T07:50:49;23.50;;;9.23;;
7338;SDS011;33747;49.524;8.390;2023-01-31T07:53:21;17.27;;;8.80;;
7338;SDS011;33747;49.524;8.390;2023-01-31T07:55:47;24.08;;;8.88;;
7338;SDS011;33747;49.524;8.390;2023-01-31T07:58:15;16.90;;;8.38;;
7338;SDS011;33747;49.524;8.390;2023-01-31T08:00:41;21.83;;;8.35;;
7338;SDS011;33747;49.524;8.390;2023-01-31T08:03:26;19.35;;;7.90;;
7338;SDS011;33747;49.524;8.390;2023-01-31T08:06:17;15.80;;;7.82;;
7338;SDS011;33747;49.524;8.390;2023-01-31T08:08:43;21.52;;;7.93;;
7338;SDS011;33747;49.524;8.390;2023-01-31T08:11:09;21.40;;;7.95;;
7338;SDS011;33747;49.524;8.390;2023-01-31T08:13:35;19.35;;;8.43;;
7338;SDS011;33747;49.524;8.390;2023-01-31T08:16:01;21.95;;;7.78;;
7338;SDS011;33747;49.524;8.390;2023-01-31T08:18:27;24.05;;;8.50;;
7338;SDS011;33747;49.524;8.390;2023-01-31T08:20:53;15.82;;;8.13;;
7338;SDS011;33747;49.524;8.390;2023-01-31T08:23:20;15.52;;;8.65;;
7338;SDS011;33747;49.524;8.390;2023-01-31T08:25:45;16.35;;;7.43;;
7338;SDS011;33747;49.524;8.390;2023-01-31T08:28:11;18.48;;;7.78;;
7338;SDS011;33747;49.524;8.390;2023-01-31T08:30:40;23.30;;;8.30;;
7338;SDS011;33747;49.524;8.390;2023-01-31T08:33:06;22.38;;;9.52;;
7338;SDS011;33747;49.524;8.390;2023-01-31T08:35:32;22.65;;;10.27;;
7338;SDS011;33747;49.524;8.390;2023-01-31T08:37:57;28.85;;;11.95;;
7338;SDS011;33747;49.524;8.390;2023-01-31T08:40:23;30.90;;;11.60;;
7338;SDS011;33747;49.524;8.390;2023-01-31T08:42:52;13.00;;;6.57;;
7338;SDS011;33747;49.524;8.390;2023-01-31T08:45:19;18.48;;;7.40;;
7338;SDS011;33747;49.524;8.390;2023-01-31T08:47:44;19.38;;;7.70;;
7338;SDS011;33747;49.524;8.390;2023-01-31T08:50:10;20.77;;;7.70;;
7338;SDS011;33747;49.524;8.390;2023-01-31T08:52:35;19.05;;;8.93;;
7338;SDS011;33747;49.524;8.390;2023-01-31T08:55:01;16.05;;;7.20;;
7338;SDS011;33747;49.524;8.390;2023-01-31T08:57:27;19.65;;;7.72;;
7338;SDS011;33747;49.524;8.390;2023-01-31T08:59:53;21.83;;;8.15;;
7338;SDS011;33747;49.524;8.390;2023-01-31T09:02:19;16.10;;;7.07;;
7338;SDS011;33747;49.524;8.390;2023-01-31T09:04:45;17.63;;;7.43;;
7338;SDS011;33747;49.524;8.390;2023-01-31T09:07:10;16.23;;;7.72;;
7338;SDS011;33747;49.524;8.390;2023-01-31T09:09:35;22.35;;;8.00;;
7338;SDS011;33747;49.524;8.390;2023-01-31T09:12:02;23.92;;;8.45;;
7338;SDS011;33747;49.524;8.390;2023-01-31T09:14:27;40.72;;;15.07;;
7338;SDS011;33747;49.524;8.390;2023-01-31T09:16:54;18.90;;;8.32;;
7338;SDS011;33747;49.524;8.390;2023-01-31T09:19:19;23.60;;;8.45;;
7338;SDS011;33747;49.524;8.390;2023-01-31T09:21:46;26.02;;;7.57;;
7338;SDS011;33747;49.524;8.390;2023-01-31T09:24:11;23.00;;;7.68;;
7338;SDS011;33747;49.524;8.390;2023-01-31T09:26:37;19.33;;;8.68;;
7338;SDS011;33747;49.524;8.390;2023-01-31T09:29:02;22.63;;;13.48;;
7338;SDS011;33747;49.524;8.390;2023-01-31T09:31:28;17.98;;;9.40;;
7338;SDS011;33747;49.524;8.390;2023-01-31T09:33:54;45.67;;;21.98;;
7338;SDS011;33747;49.524;8.390;2023-01-31T09:36:20;16.63;;;8.35;;
7338;SDS011;33747;49.524;8.390;2023-01-31T09:38:45;20.35;;;8.80;;
7338;SDS011;33747;49.524;8.390;2023-01-31T09:41:13;21.42;;;8.43;;
7338;SDS011;33747;49.524;8.390;2023-01-31T09:43:43;19.13;;;7.65;;
7338;SDS011;33747;49.524;8.390;2023-01-31T09:46:15;23.45;;;8.70;;
7338;SDS011;33747;49.524;8.390;2023-01-31T09:48:45;21.50;;;8.75;;
7338;SDS011;33747;49.524;8.390;2023-01-31T09:51:13;23.02;;;9.02;;
7338;SDS011;33747;49.524;8.390;2023-01-31T09:53:40;24.30;;;9.10;;
7338;SDS011;33747;49.524;8.390;2023-01-31T09:56:12;24.40;;;8.63;;
7338;SDS011;33747;49.524;8.390;2023-01-31T10:01:30;28.60;;;8.52;;
7338;SDS011;33747;49.524;8.390;2023-01-31T10:07:00;22.55;;;8.10;;
7338;SDS011;33747;49.524;8.390;2023-01-31T10:09:42;23.55;;;7.70;;
7338;SDS011;33747;49.524;8.390;2023-01-31T10:12:21;21.33;;;7.45;;
7338;SDS011;33747;49.524;8.390;2023-01-31T10:14:51;17.42;;;7.65;;
7338;SDS011;33747;49.524;8.390;2023-01-31T10:17:35;20.55;;;8.02;;
7338;SDS011;33747;49.524;8.390;2023-01-31T10:22:49;18.98;;;7.78;;
7338;SDS011;33747;49.524;8.390;2023-01-31T10:25:38;21.88;;;8.90;;
7338;SDS011;33747;49.524;8.390;2023-01-31T10:28:09;21.88;;;8.43;;
7338;SDS011;33747;49.524;8.390;2023-01-31T10:30:44;19.10;;;7.75;;
7338;SDS011;33747;49.524;8.390;2023-01-31T10:33:23;17.75;;;6.70;;
7338;SDS011;33747;49.524;8.390;2023-01-31T10:35:56;12.38;;;7.05;;
7338;SDS011;33747;49.524;8.390;2023-01-31T10:38:26;17.02;;;7.45;;
7338;SDS011;33747;49.524;8.390;2023-01-31T10:40:57;21.77;;;6.50;;
7338;SDS011;33747;49.524;8.390;2023-01-31T10:43:35;15.52;;;7.00;;
7338;SDS011;33747;49.524;8.390;2023-01-31T10:46:07;20.98;;;7.28;;
7338;SDS011;33747;49.524;8.390;2023-01-31T10:48:34;17.02;;;7.38;;
7338;SDS011;33747;49.524;8.390;2023-01-31T10:53:48;20.02;;;7.47;;
7338;SDS011;33747;49.524;8.390;2023-01-31T10:56:26;20.77;;;7.78;;
7338;SDS011;33747;49.524;8.390;2023-01-31T10:59:29;22.23;;;6.80;;
7338;SDS011;33747;49.524;8.390;2023-01-31T11:01:56;19.10;;;8.05;;
7338;SDS011;33747;49.524;8.390;2023-01-31T11:04:23;20.63;;;7.90;;
7338;SDS011;33747;49.524;8.390;2023-01-31T11:06:54;18.45;;;7.13;;
7338;SDS011;33747;49.524;8.390;2023-01-31T11:09:22;15.35;;;6.88;;
7338;SDS011;33747;49.524;8.390;2023-01-31T11:11:56;21.15;;;7.10;;
7338;SDS011;33747;49.524;8.390;2023-01-31T11:14:26;19.42;;;6.65;;
7338;SDS011;33747;49.524;8.390;2023-01-31T11:16:58;26.45;;;7.18;;
7338;SDS011;33747;49.524;8.390;2023-01-31T11:19:36;14.60;;;6.13;;
7338;SDS011;33747;49.524;8.390;2023-01-31T11:22:05;16.20;;;6.50;;
7338;SDS011;33747;49.524;8.390;2023-01-31T11:24:31;16.92;;;6.63;;
7338;SDS011;33747;49.524;8.390;2023-01-31T11:27:05;15.80;;;6.95;;
7338;SDS011;33747;49.524;8.390;2023-01-31T11:29:36;18.25;;;7.60;;
7338;SDS011;33747;49.524;8.390;2023-01-31T11:32:14;31.38;;;7.90;;
7338;SDS011;33747;49.524;8.390;2023-01-31T11:35:22;23.65;;;7.40;;
7338;SDS011;33747;49.524;8.390;2023-01-31T11:37:50;16.23;;;6.75;;
7338;SDS011;33747;49.524;8.390;2023-01-31T11:40:19;16.42;;;6.10;;
7338;SDS011;33747;49.524;8.390;2023-01-31T11:42:53;18.30;;;6.28;;
7338;SDS011;33747;49.524;8.390;2023-01-31T11:45:20;21.73;;;6.65;;
7338;SDS011;33747;49.524;8.390;2023-01-31T11:47:51;16.02;;;6.28;;
7338;SDS011;33747;49.524;8.390;2023-01-31T11:50:18;21.63;;;6.57;;
7338;SDS011;33747;49.524;8.390;2023-01-31T11:52:44;18.73;;;7.25;;
7338;SDS011;33747;49.524;8.390;2023-01-31T11:55:12;17.42;;;6.65;;
7338;SDS011;33747;49.524;8.390;2023-01-31T11:57:40;17.20;;;7.00;;
7338;SDS011;33747;49.524;8.390;2023-01-31T12:00:16;15.57;;;6.82;;
7338;SDS011;33747;49.524;8.390;2023-01-31T12:02:59;15.52;;;6.50;;
7338;SDS011;33747;49.524;8.390;2023-01-31T12:05:36;16.25;;;6.32;;
7338;SDS011;33747;49.524;8.390;2023-01-31T12:08:03;11.35;;;5.03;;
7338;SDS011;33747;49.524;8.390;2023-01-31T12:10:30;23.08;;;6.53;;
7338;SDS011;33747;49.524;8.390;2023-01-31T12:13:13;22.67;;;5.85;;
7338;SDS011;33747;49.524;8.390;2023-01-31T12:18:09;16.63;;;6.55;;
7338;SDS011;33747;49.524;8.390;2023-01-31T12:20:41;10.98;;;5.43;;
7338;SDS011;33747;49.524;8.390;2023-01-31T12:23:15;12.38;;;5.75;;
7338;SDS011;33747;49.524;8.390;2023-01-31T12:31:18;15.93;;;5.13;;
7338;SDS011;33747;49.524;8.390;2023-01-31T12:41:51;18.42;;;4.95;;
7338;SDS011;33747;49.524;8.390;2023-01-31T12:44:41;16.38;;;5.75;;
7338;SDS011;33747;49.524;8.390;2023-01-31T12:47:31;11.13;;;4.97;;
7338;SDS011;33747;49.524;8.390;2023-01-31T12:50:12;14.45;;;6.18;;
7338;SDS011;33747;49.524;8.390;2023-01-31T12:53:20;10.18;;;5.68;;
7338;SDS011;33747;49.524;8.390;2023-01-31T13:01:26;22.33;;;5.85;;
7338;SDS011;33747;49.524;8.390;2023-01-31T13:06:48;14.65;;;6.63;;
7338;SDS011;33747;49.524;8.390;2023-01-31T13:09:22;39.75;;;14.15;;
7338;SDS011;33747;49.524;8.390;2023-01-31T13:14:34;19.25;;;7.32;;
7338;SDS011;33747;49.524;8.390;2023-01-31T13:17:02;17.65;;;8.35;;
7338;SDS011;33747;49.524;8.390;2023-01-31T13:22:10;25.20;;;12.20;;
7338;SDS011;33747;49.524;8.390;2023-01-31T13:24:42;16.35;;;6.35;;
7338;SDS011;33747;49.524;8.390;2023-01-31T13:29:43;12.85;;;6.53;;
7338;SDS011;33747;49.524;8.390;2023-01-31T13:32:31;13.43;;;5.90;;
7338;SDS011;33747;49.524;8.390;2023-01-31T13:34:59;14.20;;;5.90;;
7338;SDS011;33747;49.524;8.390;2023-01-31T13:37:27;18.70;;;6.10;;
7338;SDS011;33747;49.524;8.390;2023-01-31T13:42:40;13.60;;;6.15;;
7338;SDS011;33747;49.524;8.390;2023-01-31T13:45:07;10.02;;;6.13;;
7338;SDS011;33747;49.524;8.390;2023-01-31T13:47:46;13.60;;;6.18;;
7338;SDS011;33747;49.524;8.390;2023-01-31T13:52:52;15.35;;;6.65;;
7338;SDS011;33747;49.524;8.390;2023-01-31T13:55:26;16.63;;;6.15;;
7338;SDS011;33747;49.524;8.390;2023-01-31T13:58:06;19.92;;;6.95;;
7338;SDS011;33747;49.524;8.390;2023-01-31T14:03:09;18.27;;;6.43;;
7338;SDS011;33747;49.524;8.390;2023-01-31T14:05:48;12.90;;;6.18;;
7338;SDS011;33747;49.524;8.390;2023-01-31T14:13:42;12.60;;;5.40;;
7338;SDS011;33747;49.524;8.390;2023-01-31T14:16:32;12.52;;;6.43;;
7338;SDS011;33747;49.524;8.390;2023-01-31T14:21:49;16.38;;;7.30;;
7338;SDS011;33747;49.524;8.390;2023-01-31T14:24:18;12.95;;;6.45;;
7338;SDS011;33747;49.524;8.390;2023-01-31T14:29:20;12.68;;;6.78;;
7338;SDS011;33747;49.524;8.390;2023-01-31T14:31:48;11.68;;;6.78;;
7338;SDS011;33747;49.524;8.390;2023-01-31T14:34:15;9.77;;;6.05;;
7338;SDS011;33747;49.524;8.390;2023-01-31T14:39:26;24.90;;;8.93;;
7338;SDS011;33747;49.524;8.390;2023-01-31T14:45:18;15.50;;;7.40;;
7338;SDS011;33747;49.524;8.390;2023-01-31T14:50:46;16.45;;;6.45;;
7338;SDS011;33747;49.524;8.390;2023-01-31T14:58:36;13.32;;;6.03;;
7338;SDS011;33747;49.524;8.390;2023-01-31T15:01:07;16.58;;;6.35;;
7338;SDS011;33747;49.524;8.390;2023-01-31T15:03:37;13.48;;;5.57;;
7338;SDS011;33747;49.524;8.390;2023-01-31T15:06:05;13.23;;;5.40;;
7338;SDS011;33747;49.524;8.390;2023-01-31T15:08:44;14.45;;;6.07;;
7338;SDS011;33747;49.524;8.390;2023-01-31T15:11:12;14.93;;;5.07;;
7338;SDS011;33747;49.524;8.390;2023-01-31T15:16:29;19.52;;;5.28;;
7338;SDS011;33747;49.524;8.390;2023-01-31T15:19:03;19.20;;;6.53;;
7338;SDS011;33747;49.524;8.390;2023-01-31T15:21:32;22.08;;;5.57;;
7338;SDS011;33747;49.524;8.390;2023-01-31T15:26:58;18.27;;;5.78;;
7338;SDS011;33747;49.524;8.390;2023-01-31T15:29:32;19.58;;;6.20;;
7338;SDS011;33747;49.524;8.390;2023-01-31T15:32:05;14.25;;;5.72;;
7338;SDS011;33747;49.524;8.390;2023-01-31T15:34:46;13.25;;;5.95;;
7338;SDS011;33747;49.524;8.390;2023-01-31T15:37:17;13.50;;;6.20;;
7338;SDS011;33747;49.524;8.390;2023-01-31T15:39:54;16.33;;;6.47;;
